Latest Weather Observations for Coolangatta

IDN60801

Issued at 4:52 pm EDT Monday 18 February 2019 (issued every 10 minutes, with the page automatically refreshed every 10 minutes)

About weather observations | Map of weather stations | Latest weather observations for NSW | Other Formats
Station Details ID: 040717 Name: COOLANGATTA Lat: -28.17 Lon: 153.51 Height: 4.0 m
Data from the previous 72 hours. | See also: Recent months at Coolangatta
Date/Time
EDT
Temp
°C
App
Temp
°C
Dew
Point
°C
Rel
Hum
%
Delta-T
°C
Wind Press
QNH
hPa
Press
MSL
hPa
Rain since
9am
mm
Dir  Spd
km/h
Gust
km/h
Spd
kts
Gust
kts
18/04:30pm 28.3 26.2 18.1 54 6.5 ESE 26 33 14 18 1009.3 1009.2 0.0
18/04:00pm 28.6 26.5 17.2 50 7.2 E 24 32 13 17 1009.6 1009.5 0.0
18/03:30pm 29.3 27.3 17.5 49 7.5 ESE 24 35 13 19 1009.8 1009.7 0.0
18/03:00pm 29.6 27.8 17.8 49 7.5 E 24 32 13 17 1010.1 1010.0 0.0
18/02:30pm 29.3 27.6 17.2 48 7.6 ESE 22 28 12 15 1010.5 1010.4 0.0
18/02:00pm 28.5 27.0 17.7 52 6.8 ESE 22 26 12 14 1010.9 1010.8 0.0
18/01:30pm 29.2 28.3 18.3 51 7.0 ESE 20 28 11 15 1011.1 1011.0 0.0
18/01:00pm 28.4 27.1 18.2 54 6.5 ESE 22 32 12 17 1011.3 1011.2 0.0
18/12:30pm 28.7 27.7 17.6 51 7.0 SE 19 28 10 15 1011.7 1011.6 0.0
18/12:00pm 28.5 27.5 18.0 53 6.7 SE 20 32 11 17 1011.9 1011.8 0.0
18/11:30am 27.9 27.1 18.0 55 6.3 ESE 19 28 10 15 1012.4 1012.3 0.0
18/11:00am 28.0 29.4 19.5 60 5.5 S 11 17 6 9 1012.5 1012.4 0.0
18/10:30am 25.8 25.7 18.7 65 4.5 SSE 17 24 9 13 1012.7 1012.6 0.0
18/10:00am 26.2 26.3 18.3 61 5.0 S 15 20 8 11 1012.5 1012.4 0.0
18/09:30am 26.2 26.2 18.1 61 5.1 S 15 22 8 12 1012.3 1012.2 0.0
18/09:00am 26.3 26.7 18.9 63 4.7 S 15 20 8 11 1012.5 1012.4 0.0
18/08:30am 24.0 24.6 17.7 68 3.9 SSW 11 17 6 9 1012.3 1012.2 0.0
18/08:00am 23.1 24.8 18.4 75 3.0 SSW 7 11 4 6 1012.2 1012.1 0.0
18/07:30am 22.0 24.6 19.2 84 1.8 SW 4 7 2 4 1012.2 1012.1 0.0
18/07:00am 19.9 21.3 17.3 85 1.6 WSW 6 9 3 5 1011.9 1011.8 0.0
18/06:30am 19.4 20.6 17.4 88 1.2 SSW 7 9 4 5 1011.7 1011.6 0.0
18/06:00am 19.7 21.2 17.5 87 1.3 WSW 6 6 3 3 1011.6 1011.5 0.0
18/05:30am 19.6 20.7 17.0 85 1.6 SW 7 11 4 6 1011.3 1011.2 0.0
18/05:00am 19.7 21.1 17.3 86 1.5 SW 6 7 3 4 1011.3 1011.2 0.0
18/04:30am 19.8 21.7 17.6 87 1.3 SW 4 7 2 4 1011.4 1011.3 0.0
18/04:00am 19.5 20.7 17.3 87 1.3 SW 7 9 4 5 1011.6 1011.5 0.0
18/03:30am 19.9 21.2 17.5 86 1.5 S 7 9 4 5 1011.7 1011.6 0.0
18/03:00am 20.3 22.9 17.5 84 1.7 CALM 0 0 0 0 1011.9 1011.8 0.0
18/02:30am 20.7 21.6 17.5 82 2.0 WSW 9 13 5 7 1012.0 1011.9 0.0
18/02:00am 20.7 21.3 17.7 83 1.8 SW 11 13 6 7 1012.3 1012.2 0.0
18/01:30am 20.6 21.5 17.6 83 1.8 SW 9 11 5 6 1012.7 1012.6 0.0
18/01:00am 21.0 21.6 17.8 82 2.0 WSW 11 13 6 7 1013.0 1012.9 0.0
18/12:30am 20.9 21.9 17.7 82 2.0 WSW 9 13 5 7 1013.4 1013.3 0.0
18/12:00am 20.8 21.7 17.6 82 2.0 WSW 9 9 5 5 1013.5 1013.4 0.0
 
Date/Time
EDT
Temp
°C
App
Temp
°C
Dew
Point
°C
Rel
Hum
%
Delta-T
°C
Wind Press
QNH
hPa
Press
MSL
hPa
Rain since
9am
mm
Dir  Spd
km/h
Gust
km/h
Spd
kts
Gust
kts
17/11:30pm 21.3 22.7 17.7 80 2.2 SSW 7 9 4 5 1013.6 1013.5 0.0
17/11:00pm 22.4 23.7 17.1 72 3.3 SSE 6 9 3 5 1013.7 1013.6 0.0
17/10:30pm 23.5 23.4 17.0 67 4.0 SE 13 19 7 10 1013.8 1013.7 0.0
17/10:00pm 23.4 23.7 16.9 67 4.0 SE 11 17 6 9 1013.6 1013.5 0.0
17/09:30pm 24.4 24.2 17.6 66 4.2 SE 15 20 8 11 1013.5 1013.4 0.0
17/09:00pm 23.9 23.5 16.2 62 4.7 SE 13 19 7 10 1013.2 1013.1 0.0
17/08:30pm 24.6 23.6 16.6 61 4.9 SE 17 22 9 12 1012.9 1012.8 0.0
17/08:00pm 24.6 23.1 16.3 60 5.1 ESE 19 24 10 13 1012.6 1012.5 0.0
17/07:30pm 24.7 23.6 16.4 60 5.1 SE 17 22 9 12 1012.5 1012.4 0.0
17/07:00pm 25.6 24.1 16.7 58 5.5 SE 20 28 11 15 1012.2 1012.1 0.0
17/06:30pm 26.3 24.1 16.8 56 5.9 SE 24 33 13 18 1012.0 1011.9 0.0
17/06:00pm 27.1 24.7 16.4 52 6.6 SE 24 35 13 19 1011.8 1011.7 0.0
17/05:30pm 27.0 24.2 17.2 55 6.1 SE 28 37 15 20 1011.8 1011.7 0.0
17/05:00pm 27.6 25.3 17.7 54 6.3 SE 26 39 14 21 1011.7 1011.6 0.0
17/04:30pm 27.6 24.5 16.6 51 6.8 ESE 28 39 15 21 1011.8 1011.7 0.0
17/04:00pm 29.0 26.3 16.5 46 7.8 SE 26 43 14 23 1012.0 1011.9 0.0
17/03:30pm 28.3 24.9 15.9 47 7.6 SE 28 41 15 22 1012.3 1012.2 0.0
17/03:00pm 28.9 24.7 14.7 42 8.6 SE 30 43 16 23 1012.7 1012.6 0.0
17/02:30pm 29.2 26.0 16.4 46 8.0 ESE 28 37 15 20 1012.9 1012.8 0.0
17/02:00pm 28.2 24.7 15.5 46 7.8 ESE 28 37 15 20 1013.3 1013.2 0.0
17/01:30pm 28.8 25.8 16.7 48 7.6 ESE 28 37 15 20 1013.6 1013.5 0.0
17/01:00pm 27.9 24.0 14.5 44 8.1 ESE 28 35 15 19 1014.0 1013.9 0.0
17/12:30pm 28.7 25.4 14.1 40 8.8 SE 24 32 13 17 1014.2 1014.1 0.0
17/12:00pm 28.6 25.9 15.5 45 8.0 SE 24 35 13 19 1014.6 1014.5 0.0
17/11:30am 28.2 25.8 15.5 46 7.8 SE 22 32 12 17 1014.9 1014.8 0.0
17/11:00am 28.5 25.3 14.3 41 8.5 SE 24 32 13 17 1015.1 1015.0 0.0
17/10:30am 28.4 26.2 15.0 44 8.1 SSE 20 30 11 16 1015.1 1015.0 0.0
17/10:00am 27.4 25.7 15.7 48 7.2 SSE 19 32 10 17 1015.0 1014.9 0.4
17/09:30am 25.9 24.9 16.7 57 5.7 S 17 26 9 14 1014.9 1014.8 0.4
17/09:00am 25.2 24.1 16.4 58 5.4 S 17 24 9 13 1014.9 1014.8 0.4
17/08:30am 24.9 24.8 16.9 61 4.9 S 13 17 7 9 1014.6 1014.5 0.4
17/08:00am 23.4 23.1 16.4 64 4.3 SSW 13 17 7 9 1014.4 1014.3 0.4
17/07:30am 22.1 21.7 16.1 69 3.6 SSW 13 17 7 9 1014.3 1014.2 0.4
17/07:00am 21.6 21.5 15.9 70 3.4 SSW 11 13 6 7 1014.0 1013.9 0.4
17/06:30am 21.3 21.6 16.0 72 3.2 SSW 9 15 5 8 1013.7 1013.6 0.4
17/06:00am 20.7 20.9 15.7 73 3.0 SSW 9 15 5 8 1013.5 1013.4 0.4
17/05:30am 20.8 20.6 15.8 73 3.0 SSW 11 15 6 8 1013.5 1013.4 0.4
17/05:00am 20.5 20.6 15.5 73 3.0 SSW 9 13 5 7 1013.5 1013.4 0.4
17/04:30am 20.6 20.6 16.2 76 2.6 SW 11 15 6 8 1013.6 1013.5 0.4
17/04:00am 19.9 20.1 15.7 77 2.5 SW 9 11 5 6 1013.8 1013.7 0.4
17/03:30am 20.0 20.5 15.6 76 2.6 SSW 7 9 4 5 1014.0 1013.9 0.4
17/03:00am 20.5 21.4 16.1 76 2.6 SSW 6 9 3 5 1014.3 1014.2 0.4
17/02:30am 21.0 21.7 16.0 73 3.0 S 7 9 4 5 1014.6 1014.5 0.4
17/02:00am 21.9 21.5 16.2 70 3.4 SSW 13 17 7 9 1015.0 1014.9 0.4
17/01:30am 21.3 21.3 16.3 73 3.0 SW 11 13 6 7 1015.3 1015.2 0.4
17/01:00am 21.6 22.1 16.6 73 3.0 SW 9 11 5 6 1015.8 1015.7 0.4
17/12:30am 21.6 21.9 16.1 71 3.3 SSW 9 11 5 6 1016.1 1016.0 0.4
17/12:00am 21.8 22.1 16.1 70 3.4 SSW 9 13 5 7 1016.5 1016.4 0.4
 
Date/Time
EDT
Temp
°C
App
Temp
°C
Dew
Point
°C
Rel
Hum
%
Delta-T
°C
Wind Press
QNH
hPa
Press
MSL
hPa
Rain since
9am
mm
Dir  Spd
km/h
Gust
km/h
Spd
kts
Gust
kts
16/11:30pm 22.2 22.1 16.0 68 3.7 SSW 11 15 6 8 1016.4 1016.3 0.4
16/11:00pm 23.1 22.9 15.7 63 4.4 S 11 19 6 10 1016.6 1016.5 0.4
16/10:30pm 23.7 23.3 16.2 63 4.6 SSE 13 19 7 10 1016.7 1016.6 0.4
16/10:00pm 24.2 23.6 16.7 63 4.6 SSE 15 20 8 11 1016.7 1016.6 0.4
16/09:30pm 24.1 23.7 17.1 65 4.3 SSE 15 22 8 12 1016.7 1016.6 0.4
16/09:00pm 24.1 23.5 16.6 63 4.6 SSE 15 20 8 11 1016.5 1016.4 0.4
16/08:30pm 24.3 23.4 16.8 63 4.6 SSE 17 24 9 13 1016.4 1016.3 0.4
16/08:00pm 24.4 22.8 16.6 61 4.8 SSE 20 28 11 15 1016.1 1016.0 0.4
16/07:30pm 24.4 23.9 16.9 63 4.6 S 15 20 8 11 1015.9 1015.8 0.4
16/07:00pm 24.9 22.9 17.4 63 4.7 SSE 24 33 13 18 1015.8 1015.7 0.4
16/06:30pm 25.3 22.5 16.4 57 5.5 SSE 26 43 14 23 1015.6 1015.5 0.4
16/06:00pm 24.4 23.7 18.3 69 3.8 SE 19 30 10 16 1015.5 1015.4 0.4
16/05:30pm 23.1 22.6 18.6 76 2.8 S 19 28 10 15 1015.7 1015.6 0.4
16/05:00pm 25.5 23.5 17.4 61 5.1 SSE 24 35 13 19 1015.7 1015.6 0.4
16/04:30pm 25.5 23.7 16.9 59 5.3 SSE 22 32 12 17 1015.7 1015.6 0.4
16/04:00pm 26.2 24.7 17.6 59 5.4 SSE 22 35 12 19 1015.8 1015.7 0.4
16/03:35pm 25.7 22.4 17.9 62 4.9 SSE 32 50 17 27 1016.1 1016.0 0.4
16/03:30pm 24.9 20.7 18.1 66 4.3 SSE 37 50 20 27 1016.2 1016.1 0.4
16/03:00pm 25.3 22.8 18.0 64 4.6 SSE 28 43 15 23 1016.3 1016.2 0.4
16/02:30pm 26.8 23.4 16.7 54 6.3 SE 30 39 16 21 1016.6 1016.5 0.4
16/02:00pm 27.0 23.6 17.8 57 5.8 SSE 32 44 17 24 1016.8 1016.7 0.4
16/01:30pm 26.8 26.1 18.6 60 5.2 SE 20 28 11 15 1017.2 1017.1 0.4
16/01:00pm 26.2 22.1 17.3 58 5.6 SE 35 44 19 24 1017.7 1017.6 0.4
16/12:30pm 28.2 25.1 18.3 55 6.3 SE 32 44 17 24 1017.7 1017.6 0.4
16/12:00pm 27.1 25.0 18.9 61 5.3 SE 28 39 15 21 1018.0 1017.9 0.4
16/11:30am 25.2 25.9 20.5 75 3.1 S 17 24 9 13 1018.2 1018.1 0.4
16/11:00am 25.4 23.1 17.6 62 4.9 SE 26 43 14 23 1018.5 1018.4 0.0
16/10:30am 25.6 24.7 17.8 62 4.9 SSW 19 26 10 14 1018.4 1018.3 0.0
16/10:00am 25.1 23.8 18.1 65 4.4 S 22 30 12 16 1018.5 1018.4 0.4
16/09:30am 24.2 24.3 18.4 70 3.7 S 15 22 8 12 1018.4 1018.3 0.4
16/09:00am 22.9 23.3 18.2 75 2.9 SSW 13 20 7 11 1018.5 1018.4 0.4
16/08:30am 21.7 21.6 17.9 79 2.4 SSW 15 24 8 13 1018.4 1018.3 0.4
16/08:00am 22.0 21.9 17.8 77 2.6 SSW 15 20 8 11 1018.2 1018.1 0.4
16/07:30am 21.6 21.6 17.2 76 2.7 SSW 13 20 7 11 1017.8 1017.7 0.4
16/07:00am 21.0 20.8 16.6 76 2.7 SSW 13 19 7 10 1017.4 1017.3 0.4
16/06:30am 21.1 20.3 17.1 78 2.4 SSW 17 26 9 14 1017.3 1017.2 0.4
16/06:00am 21.0 21.0 17.2 79 2.3 S 13 19 7 10 1017.2 1017.1 0.4
16/05:30am 21.2 20.8 17.2 78 2.4 S 15 20 8 11 1017.0 1016.9 0.4
16/05:00am 21.4 20.2 17.0 76 2.7 S 19 26 10 14 1016.9 1016.8 0.2
16/04:30am 21.7 20.6 16.4 72 3.2 SSW 17 20 9 11 1017.0 1016.9 0.2
16/04:00am 22.5 20.9 16.1 67 3.9 SSW 19 26 10 14 1017.0 1016.9 0.2
16/03:30am 21.9 20.6 15.7 68 3.7 SSW 17 24 9 13 1017.4 1017.3 0.2
16/03:00am 21.7 20.9 16.2 71 3.3 SSW 15 22 8 12 1017.5 1017.4 0.2
16/02:30am 21.4 20.0 16.6 74 2.9 SSW 19 28 10 15 1017.8 1017.7 0.2
16/02:00am 21.1 21.7 18.7 86 1.5 S 13 20 7 11 1018.0 1017.9 0.2
16/01:30am 22.0 19.5 17.2 74 2.9 SSE 26 44 14 24 1018.4 1018.3 0.0
16/01:00am 23.4 21.6 15.5 61 4.7 S 19 30 10 16 1018.7 1018.6 0.0
16/12:30am 23.5 21.6 15.3 60 4.9 S 19 30 10 16 1018.9 1018.8 0.0
16/12:00am 23.6 22.3 15.9 62 4.6 S 17 26 9 14 1019.1 1019.0 0.0
 
Date/Time
EDT
Temp
°C
App
Temp
°C
Dew
Point
°C
Rel
Hum
%
Delta-T
°C
Wind Press
QNH
hPa
Press
MSL
hPa
Rain since
9am
mm
Dir  Spd
km/h
Gust
km/h
Spd
kts
Gust
kts
15/11:30pm 23.7 22.2 16.2 63 4.6 S 19 28 10 15 1019.3 1019.2 0.0
15/11:00pm 23.4 21.9 16.4 64 4.3 S 19 24 10 13 1019.4 1019.3 0.0
15/10:30pm 23.5 21.9 16.5 65 4.3 S 20 28 11 15 1019.4 1019.3 0.0
15/10:00pm 23.6 22.3 16.9 66 4.1 S 19 28 10 15 1019.5 1019.4 0.0
15/09:30pm 23.7 21.7 16.5 64 4.4 S 22 33 12 18 1019.4 1019.3 0.0
15/09:00pm 23.5 22.0 16.3 64 4.4 S 19 28 10 15 1019.3 1019.2 0.0
15/08:30pm 23.8 22.1 15.8 61 4.8 S 19 30 10 16 1019.1 1019.0 0.0
15/08:00pm 24.1 22.0 15.3 58 5.3 S 20 28 11 15 1018.8 1018.7 0.0
15/07:30pm 24.2 22.1 15.1 56 5.4 S 20 32 11 17 1018.5 1018.4 0.0
15/07:00pm 24.7 21.8 15.1 55 5.7 S 24 43 13 23 1018.2 1018.1 0.0
15/06:50pm 24.9 21.2 15.0 54 5.9 S 28 46 15 25 1018.0 1017.9 0.0
15/06:30pm 25.5 21.8 16.1 56 5.7 SSE 30 43 16 23 1017.8 1017.7 0.0
15/06:09pm 25.5 21.1 15.2 53 6.2 SSE 32 50 17 27 1017.7 1017.6 0.0
15/06:00pm 25.7 21.5 15.7 54 6.1 SSE 32 41 17 22 1017.6 1017.5 0.0

Other formats

Comma delimited format used in spreadsheet applications
http://www.bom.gov.au/fwo/IDN60801/IDN60801.94592.axf

JavaScript Object Notation format (JSON) in row-major order
http://www.bom.gov.au/fwo/IDN60801/IDN60801.94592.json

Data quality

Most of these data are generated automatically and are frequently updated. Quality checks on data are not normally performed. It is possible for incorrect values to appear. Refer to information at About Latest Weather Observations and please check the disclaimer before using these data.